sensor_id;sensor_type;location;lat;lon;timestamp;temperature;humidity
35240;DHT22;21376;50.954;4.716;2023-05-13T00:01:56;12.40;99.90
35240;DHT22;21376;50.954;4.716;2023-05-13T00:04:21;12.40;99.90
35240;DHT22;21376;50.954;4.716;2023-05-13T00:06:48;12.40;99.90
35240;DHT22;21376;50.954;4.716;2023-05-13T00:09:22;12.30;99.90
35240;DHT22;21376;50.954;4.716;2023-05-13T00:14:18;12.30;99.90
35240;DHT22;21376;50.954;4.716;2023-05-13T00:19:15;12.20;99.90
35240;DHT22;21376;50.954;4.716;2023-05-13T00:21:41;12.20;99.90
35240;DHT22;21376;50.954;4.716;2023-05-13T00:24:10;12.20;99.90
35240;DHT22;21376;50.954;4.716;2023-05-13T00:29:07;12.40;99.90
35240;DHT22;21376;50.954;4.716;2023-05-13T00:31:35;12.20;99.90
35240;DHT22;21376;50.954;4.716;2023-05-13T00:34:10;12.10;99.90
35240;DHT22;21376;50.954;4.716;2023-05-13T00:36:36;12.00;99.90
35240;DHT22;21376;50.954;4.716;2023-05-13T00:39:05;12.00;99.90
35240;DHT22;21376;50.954;4.716;2023-05-13T00:41:30;11.90;99.90
35240;DHT22;21376;50.954;4.716;2023-05-13T00:43:56;11.90;99.90
35240;DHT22;21376;50.954;4.716;2023-05-13T00:46:25;11.90;99.90
35240;DHT22;21376;50.954;4.716;2023-05-13T00:49:03;11.90;99.90
35240;DHT22;21376;50.954;4.716;2023-05-13T00:51:39;11.90;99.90
35240;DHT22;21376;50.954;4.716;2023-05-13T00:54:08;11.90;99.90
35240;DHT22;21376;50.954;4.716;2023-05-13T00:56:33;11.90;99.90
35240;DHT22;21376;50.954;4.716;2023-05-13T00:59:04;11.90;99.90
35240;DHT22;21376;50.954;4.716;2023-05-13T01:12:18;11.80;99.90
35240;DHT22;21376;50.954;4.716;2023-05-13T01:20:22;11.30;99.90
35240;DHT22;21376;50.954;4.716;2023-05-13T01:22:48;11.20;99.90
35240;DHT22;21376;50.954;4.716;2023-05-13T01:27:42;11.10;99.90
35240;DHT22;21376;50.954;4.716;2023-05-13T01:30:10;11.30;99.90
35240;DHT22;21376;50.954;4.716;2023-05-13T01:32:36;11.40;99.90
35240;DHT22;21376;50.954;4.716;2023-05-13T01:35:04;11.40;99.90
35240;DHT22;21376;50.954;4.716;2023-05-13T01:37:30;11.50;99.90
35240;DHT22;21376;50.954;4.716;2023-05-13T01:39:58;11.50;99.90
35240;DHT22;21376;50.954;4.716;2023-05-13T01:42:26;11.40;99.90
35240;DHT22;21376;50.954;4.716;2023-05-13T01:44:53;11.40;99.90
35240;DHT22;21376;50.954;4.716;2023-05-13T01:47:21;11.40;99.90
35240;DHT22;21376;50.954;4.716;2023-05-13T01:49:47;11.40;99.90
35240;DHT22;21376;50.954;4.716;2023-05-13T01:52:16;11.40;99.90
35240;DHT22;21376;50.954;4.716;2023-05-13T01:54:44;11.30;99.90
35240;DHT22;21376;50.954;4.716;2023-05-13T01:57:10;11.30;99.90
35240;DHT22;21376;50.954;4.716;2023-05-13T01:59:41;11.20;99.90
35240;DHT22;21376;50.954;4.716;2023-05-13T02:02:10;11.10;99.90
35240;DHT22;21376;50.954;4.716;2023-05-13T02:04:38;11.20;99.90
35240;DHT22;21376;50.954;4.716;2023-05-13T02:07:06;11.30;99.90
35240;DHT22;21376;50.954;4.716;2023-05-13T02:12:19;11.30;99.90
35240;DHT22;21376;50.954;4.716;2023-05-13T02:14:52;11.30;99.90
35240;DHT22;21376;50.954;4.716;2023-05-13T02:17:20;11.30;99.90
35240;DHT22;21376;50.954;4.716;2023-05-13T02:19:49;11.30;99.90
35240;DHT22;21376;50.954;4.716;2023-05-13T02:22:16;11.40;99.90
35240;DHT22;21376;50.954;4.716;2023-05-13T02:24:52;11.40;99.90
35240;DHT22;21376;50.954;4.716;2023-05-13T02:27:19;11.40;99.90
35240;DHT22;21376;50.954;4.716;2023-05-13T02:29:47;11.30;99.90
35240;DHT22;21376;50.954;4.716;2023-05-13T02:32:14;11.40;99.90
35240;DHT22;21376;50.954;4.716;2023-05-13T02:34:43;11.40;99.90
35240;DHT22;21376;50.954;4.716;2023-05-13T02:37:13;11.50;99.90
35240;DHT22;21376;50.954;4.716;2023-05-13T02:39:40;11.40;99.90
35240;DHT22;21376;50.954;4.716;2023-05-13T02:42:11;11.40;99.90
35240;DHT22;21376;50.954;4.716;2023-05-13T02:47:06;11.50;99.90
35240;DHT22;21376;50.954;4.716;2023-05-13T02:49:34;11.40;99.90
35240;DHT22;21376;50.954;4.716;2023-05-13T02:51:59;11.40;99.90
35240;DHT22;21376;50.954;4.716;2023-05-13T02:54:27;11.40;99.90
35240;DHT22;21376;50.954;4.716;2023-05-13T02:56:54;11.40;99.90
35240;DHT22;21376;50.954;4.716;2023-05-13T02:59:20;11.30;99.90
35240;DHT22;21376;50.954;4.716;2023-05-13T03:01:51;11.20;99.90
35240;DHT22;21376;50.954;4.716;2023-05-13T03:04:19;11.30;99.90
35240;DHT22;21376;50.954;4.716;2023-05-13T03:06:49;11.30;99.90
35240;DHT22;21376;50.954;4.716;2023-05-13T03:11:46;11.30;99.90
35240;DHT22;21376;50.954;4.716;2023-05-13T03:14:12;11.30;99.90
35240;DHT22;21376;50.954;4.716;2023-05-13T03:16:39;11.20;99.90
35240;DHT22;21376;50.954;4.716;2023-05-13T03:19:11;11.20;99.90
35240;DHT22;21376;50.954;4.716;2023-05-13T03:24:09;11.10;99.90
35240;DHT22;21376;50.954;4.716;2023-05-13T03:26:35;11.00;99.90
35240;DHT22;21376;50.954;4.716;2023-05-13T03:32:15;10.90;99.90
35240;DHT22;21376;50.954;4.716;2023-05-13T03:34:40;10.80;99.90
35240;DHT22;21376;50.954;4.716;2023-05-13T03:37:07;10.80;99.90
35240;DHT22;21376;50.954;4.716;2023-05-13T03:39:34;10.80;99.90
35240;DHT22;21376;50.954;4.716;2023-05-13T03:42:03;10.80;99.90
35240;DHT22;21376;50.954;4.716;2023-05-13T03:44:32;10.90;99.90
35240;DHT22;21376;50.954;4.716;2023-05-13T03:47:00;10.90;99.90
35240;DHT22;21376;50.954;4.716;2023-05-13T03:49:28;10.90;99.90
35240;DHT22;21376;50.954;4.716;2023-05-13T03:51:59;10.70;99.90
35240;DHT22;21376;50.954;4.716;2023-05-13T03:54:35;10.60;99.90
35240;DHT22;21376;50.954;4.716;2023-05-13T03:59:30;10.60;99.90
35240;DHT22;21376;50.954;4.716;2023-05-13T04:01:56;10.60;99.90
35240;DHT22;21376;50.954;4.716;2023-05-13T04:06:54;10.50;99.90
35240;DHT22;21376;50.954;4.716;2023-05-13T04:14:19;10.50;99.90
35240;DHT22;21376;50.954;4.716;2023-05-13T04:16:48;10.30;99.90
35240;DHT22;21376;50.954;4.716;2023-05-13T04:21:42;10.40;99.90
35240;DHT22;21376;50.954;4.716;2023-05-13T04:24:09;10.40;99.90
35240;DHT22;21376;50.954;4.716;2023-05-13T04:26:38;10.40;99.90
35240;DHT22;21376;50.954;4.716;2023-05-13T04:29:06;10.40;99.90
35240;DHT22;21376;50.954;4.716;2023-05-13T04:31:34;10.40;99.90
35240;DHT22;21376;50.954;4.716;2023-05-13T04:36:30;10.50;99.90
35240;DHT22;21376;50.954;4.716;2023-05-13T04:38:58;10.50;99.90
35240;DHT22;21376;50.954;4.716;2023-05-13T04:41:26;10.50;99.90
35240;DHT22;21376;50.954;4.716;2023-05-13T04:46:25;10.40;99.90
35240;DHT22;21376;50.954;4.716;2023-05-13T04:49:03;10.70;99.90
35240;DHT22;21376;50.954;4.716;2023-05-13T04:51:30;10.70;99.90
35240;DHT22;21376;50.954;4.716;2023-05-13T04:56:27;10.90;99.90
35240;DHT22;21376;50.954;4.716;2023-05-13T04:58:52;11.00;99.90
35240;DHT22;21376;50.954;4.716;2023-05-13T05:01:19;11.10;99.90
35240;DHT22;21376;50.954;4.716;2023-05-13T05:06:16;11.40;99.90
35240;DHT22;21376;50.954;4.716;2023-05-13T05:08:43;11.40;99.90
35240;DHT22;21376;50.954;4.716;2023-05-13T05:11:12;11.40;99.90
35240;DHT22;21376;50.954;4.716;2023-05-13T05:13:40;11.40;99.90
35240;DHT22;21376;50.954;4.716;2023-05-13T05:16:11;11.60;99.90
35240;DHT22;21376;50.954;4.716;2023-05-13T05:18:39;11.80;99.90
35240;DHT22;21376;50.954;4.716;2023-05-13T05:21:08;11.90;99.90
35240;DHT22;21376;50.954;4.716;2023-05-13T05:23:35;12.10;99.90
35240;DHT22;21376;50.954;4.716;2023-05-13T05:26:04;12.40;99.90
35240;DHT22;21376;50.954;4.716;2023-05-13T05:28:29;12.70;99.90
35240;DHT22;21376;50.954;4.716;2023-05-13T05:31:00;12.80;99.90
35240;DHT22;21376;50.954;4.716;2023-05-13T05:33:27;12.90;99.90
35240;DHT22;21376;50.954;4.716;2023-05-13T05:35:53;13.00;99.90
35240;DHT22;21376;50.954;4.716;2023-05-13T05:40:52;13.00;99.90
35240;DHT22;21376;50.954;4.716;2023-05-13T05:46:06;13.30;99.90
35240;DHT22;21376;50.954;4.716;2023-05-13T05:48:39;14.00;99.90
35240;DHT22;21376;50.954;4.716;2023-05-13T05:51:08;16.30;99.90
35240;DHT22;21376;50.954;4.716;2023-05-13T05:53:36;17.80;99.90
35240;DHT22;21376;50.954;4.716;2023-05-13T05:58:35;21.00;99.90
35240;DHT22;21376;50.954;4.716;2023-05-13T06:03:30;25.30;99.90
35240;DHT22;21376;50.954;4.716;2023-05-13T06:05:55;26.60;99.90
35240;DHT22;21376;50.954;4.716;2023-05-13T06:08:23;27.60;99.90
35240;DHT22;21376;50.954;4.716;2023-05-13T06:13:26;29.20;99.90
35240;DHT22;21376;50.954;4.716;2023-05-13T06:18:24;30.30;98.80
35240;DHT22;21376;50.954;4.716;2023-05-13T06:20:55;30.10;97.80
35240;DHT22;21376;50.954;4.716;2023-05-13T06:23:24;30.00;96.40
35240;DHT22;21376;50.954;4.716;2023-05-13T06:25:54;30.10;96.30
35240;DHT22;21376;50.954;4.716;2023-05-13T06:30:50;30.10;96.60
35240;DHT22;21376;50.954;4.716;2023-05-13T06:35:48;31.20;93.80
35240;DHT22;21376;50.954;4.716;2023-05-13T06:38:21;32.20;92.60
35240;DHT22;21376;50.954;4.716;2023-05-13T06:43:40;33.20;89.50
35240;DHT22;21376;50.954;4.716;2023-05-13T06:46:09;33.50;85.80
35240;DHT22;21376;50.954;4.716;2023-05-13T06:48:38;33.50;85.10
35240;DHT22;21376;50.954;4.716;2023-05-13T06:51:03;33.60;82.30
35240;DHT22;21376;50.954;4.716;2023-05-13T06:53:33;33.10;82.20
35240;DHT22;21376;50.954;4.716;2023-05-13T06:55:58;33.00;81.70
35240;DHT22;21376;50.954;4.716;2023-05-13T06:58:27;32.40;80.70
35240;DHT22;21376;50.954;4.716;2023-05-13T07:00:53;32.60;80.20
35240;DHT22;21376;50.954;4.716;2023-05-13T07:03:21;33.30;82.10
35240;DHT22;21376;50.954;4.716;2023-05-13T07:05:47;33.50;76.90
35240;DHT22;21376;50.954;4.716;2023-05-13T07:08:12;32.80;78.50
35240;DHT22;21376;50.954;4.716;2023-05-13T07:10:46;32.20;77.00
35240;DHT22;21376;50.954;4.716;2023-05-13T07:13:15;32.50;81.60
35240;DHT22;21376;50.954;4.716;2023-05-13T07:15:41;32.10;78.60
35240;DHT22;21376;50.954;4.716;2023-05-13T07:18:09;32.10;79.90
35240;DHT22;21376;50.954;4.716;2023-05-13T07:20:35;32.20;81.00
35240;DHT22;21376;50.954;4.716;2023-05-13T07:23:07;32.90;80.50
35240;DHT22;21376;50.954;4.716;2023-05-13T07:25:36;32.80;75.30
35240;DHT22;21376;50.954;4.716;2023-05-13T07:28:05;33.30;76.40
35240;DHT22;21376;50.954;4.716;2023-05-13T07:30:31;34.10;74.30
35240;DHT22;21376;50.954;4.716;2023-05-13T07:32:59;34.80;73.60
35240;DHT22;21376;50.954;4.716;2023-05-13T07:35:27;35.10;71.10
35240;DHT22;21376;50.954;4.716;2023-05-13T07:40:33;34.30;72.60
35240;DHT22;21376;50.954;4.716;2023-05-13T07:43:02;34.60;70.60
35240;DHT22;21376;50.954;4.716;2023-05-13T07:45:33;34.80;70.90
35240;DHT22;21376;50.954;4.716;2023-05-13T07:48:00;36.00;67.70
35240;DHT22;21376;50.954;4.716;2023-05-13T07:50:30;36.50;68.20
35240;DHT22;21376;50.954;4.716;2023-05-13T07:55:25;36.60;69.20
35240;DHT22;21376;50.954;4.716;2023-05-13T07:57:56;37.00;66.40
35240;DHT22;21376;50.954;4.716;2023-05-13T08:00:24;37.40;66.70
35240;DHT22;21376;50.954;4.716;2023-05-13T08:02:59;37.00;66.30
35240;DHT22;21376;50.954;4.716;2023-05-13T08:07:56;36.90;62.40
35240;DHT22;21376;50.954;4.716;2023-05-13T08:10:25;36.70;63.10
35240;DHT22;21376;50.954;4.716;2023-05-13T08:12:54;36.40;63.20
35240;DHT22;21376;50.954;4.716;2023-05-13T08:15:33;35.80;66.30
35240;DHT22;21376;50.954;4.716;2023-05-13T08:20:30;34.80;66.10
35240;DHT22;21376;50.954;4.716;2023-05-13T08:25:30;34.60;66.40
35240;DHT22;21376;50.954;4.716;2023-05-13T08:27:59;34.50;68.50
35240;DHT22;21376;50.954;4.716;2023-05-13T08:30:26;35.10;68.10
35240;DHT22;21376;50.954;4.716;2023-05-13T08:35:40;36.10;67.70
35240;DHT22;21376;50.954;4.716;2023-05-13T08:38:15;36.10;68.20
35240;DHT22;21376;50.954;4.716;2023-05-13T08:40:41;36.80;71.60
35240;DHT22;21376;50.954;4.716;2023-05-13T08:43:10;37.60;62.70
35240;DHT22;21376;50.954;4.716;2023-05-13T08:45:46;38.30;64.00
35240;DHT22;21376;50.954;4.716;2023-05-13T08:48:18;38.70;59.60
35240;DHT22;21376;50.954;4.716;2023-05-13T08:50:45;37.90;64.10
35240;DHT22;21376;50.954;4.716;2023-05-13T08:53:12;37.90;60.70
35240;DHT22;21376;50.954;4.716;2023-05-13T08:55:38;38.70;61.10
35240;DHT22;21376;50.954;4.716;2023-05-13T08:58:05;39.40;65.60
35240;DHT22;21376;50.954;4.716;2023-05-13T09:00:31;39.80;60.10
35240;DHT22;21376;50.954;4.716;2023-05-13T09:02:58;40.30;61.70
35240;DHT22;21376;50.954;4.716;2023-05-13T09:05:24;40.90;60.10
35240;DHT22;21376;50.954;4.716;2023-05-13T09:08:00;40.80;57.40
35240;DHT22;21376;50.954;4.716;2023-05-13T09:10:42;40.20;57.40
35240;DHT22;21376;50.954;4.716;2023-05-13T09:15:42;41.30;56.10
35240;DHT22;21376;50.954;4.716;2023-05-13T09:20:42;41.00;59.60
35240;DHT22;21376;50.954;4.716;2023-05-13T09:23:11;41.90;57.30
35240;DHT22;21376;50.954;4.716;2023-05-13T09:25:55;42.80;56.90
35240;DHT22;21376;50.954;4.716;2023-05-13T09:28:25;41.70;53.20
35240;DHT22;21376;50.954;4.716;2023-05-13T09:33:28;39.50;55.50
35240;DHT22;21376;50.954;4.716;2023-05-13T09:35:56;39.70;56.70
35240;DHT22;21376;50.954;4.716;2023-05-13T09:38:27;39.90;54.80
35240;DHT22;21376;50.954;4.716;2023-05-13T09:40:58;39.10;57.70
35240;DHT22;21376;50.954;4.716;2023-05-13T09:43:26;38.60;59.80
35240;DHT22;21376;50.954;4.716;2023-05-13T09:45:56;38.80;59.10
35240;DHT22;21376;50.954;4.716;2023-05-13T09:48:25;39.50;57.00
35240;DHT22;21376;50.954;4.716;2023-05-13T09:53:24;38.50;54.90
35240;DHT22;21376;50.954;4.716;2023-05-13T09:58:20;37.80;54.50
35240;DHT22;21376;50.954;4.716;2023-05-13T10:00:49;37.50;53.70
35240;DHT22;21376;50.954;4.716;2023-05-13T10:03:20;37.40;53.60
35240;DHT22;21376;50.954;4.716;2023-05-13T10:05:46;35.90;56.30
35240;DHT22;21376;50.954;4.716;2023-05-13T10:08:13;35.30;56.30
35240;DHT22;21376;50.954;4.716;2023-05-13T10:10:44;36.00;57.20
35240;DHT22;21376;50.954;4.716;2023-05-13T10:13:17;35.20;60.70
35240;DHT22;21376;50.954;4.716;2023-05-13T10:15:52;36.00;57.10
35240;DHT22;21376;50.954;4.716;2023-05-13T10:18:24;35.90;55.60
35240;DHT22;21376;50.954;4.716;2023-05-13T10:20:53;36.30;59.20
35240;DHT22;21376;50.954;4.716;2023-05-13T10:23:19;37.20;59.50
35240;DHT22;21376;50.954;4.716;2023-05-13T10:25:58;37.90;56.80
35240;DHT22;21376;50.954;4.716;2023-05-13T10:28:30;38.40;53.80
35240;DHT22;21376;50.954;4.716;2023-05-13T10:31:00;37.90;55.80
35240;DHT22;21376;50.954;4.716;2023-05-13T10:33:32;37.80;54.00
35240;DHT22;21376;50.954;4.716;2023-05-13T10:43:59;35.60;58.20
35240;DHT22;21376;50.954;4.716;2023-05-13T10:46:27;35.50;57.70
35240;DHT22;21376;50.954;4.716;2023-05-13T10:52:02;35.10;56.00
35240;DHT22;21376;50.954;4.716;2023-05-13T10:54:38;35.20;55.00
35240;DHT22;21376;50.954;4.716;2023-05-13T10:59:36;35.40;56.50
35240;DHT22;21376;50.954;4.716;2023-05-13T11:02:25;35.40;56.40
35240;DHT22;21376;50.954;4.716;2023-05-13T11:19:07;36.80;53.30
35240;DHT22;21376;50.954;4.716;2023-05-13T11:21:39;36.00;53.70
35240;DHT22;21376;50.954;4.716;2023-05-13T11:24:07;36.30;51.80
35240;DHT22;21376;50.954;4.716;2023-05-13T11:26:44;34.60;53.30
35240;DHT22;21376;50.954;4.716;2023-05-13T11:29:12;34.20;55.00
35240;DHT22;21376;50.954;4.716;2023-05-13T11:31:51;34.30;53.40
35240;DHT22;21376;50.954;4.716;2023-05-13T11:34:24;34.80;55.10
35240;DHT22;21376;50.954;4.716;2023-05-13T11:39:24;36.40;51.90
35240;DHT22;21376;50.954;4.716;2023-05-13T11:41:53;36.00;52.70
35240;DHT22;21376;50.954;4.716;2023-05-13T11:44:22;35.50;52.90
35240;DHT22;21376;50.954;4.716;2023-05-13T11:49:32;35.20;53.10
35240;DHT22;21376;50.954;4.716;2023-05-13T11:52:17;35.80;54.20
35240;DHT22;21376;50.954;4.716;2023-05-13T11:54:50;35.50;50.10
35240;DHT22;21376;50.954;4.716;2023-05-13T11:57:19;35.40;51.70
35240;DHT22;21376;50.954;4.716;2023-05-13T11:59:58;35.40;52.60
35240;DHT22;21376;50.954;4.716;2023-05-13T12:02:37;33.80;52.50
35240;DHT22;21376;50.954;4.716;2023-05-13T12:12:40;36.20;50.70
35240;DHT22;21376;50.954;4.716;2023-05-13T12:15:09;36.10;49.80
35240;DHT22;21376;50.954;4.716;2023-05-13T12:17:36;35.80;49.70
35240;DHT22;21376;50.954;4.716;2023-05-13T12:20:24;34.90;51.80
35240;DHT22;21376;50.954;4.716;2023-05-13T12:22:51;34.40;49.30
35240;DHT22;21376;50.954;4.716;2023-05-13T12:28:13;33.00;50.70
35240;DHT22;21376;50.954;4.716;2023-05-13T12:33:27;32.50;53.80
35240;DHT22;21376;50.954;4.716;2023-05-13T12:35:53;32.90;53.80
35240;DHT22;21376;50.954;4.716;2023-05-13T12:38:20;31.60;53.70
35240;DHT22;21376;50.954;4.716;2023-05-13T12:40:49;30.60;54.70
35240;DHT22;21376;50.954;4.716;2023-05-13T12:43:31;29.50;56.20
35240;DHT22;21376;50.954;4.716;2023-05-13T12:46:07;30.30;54.30
35240;DHT22;21376;50.954;4.716;2023-05-13T12:51:03;32.30;51.90
35240;DHT22;21376;50.954;4.716;2023-05-13T12:53:30;32.60;54.10
35240;DHT22;21376;50.954;4.716;2023-05-13T12:56:02;32.40;51.20
35240;DHT22;21376;50.954;4.716;2023-05-13T12:58:28;32.30;49.80
35240;DHT22;21376;50.954;4.716;2023-05-13T13:01:02;31.80;50.60
35240;DHT22;21376;50.954;4.716;2023-05-13T13:03:31;30.90;53.60
35240;DHT22;21376;50.954;4.716;2023-05-13T13:05:58;32.10;52.60
35240;DHT22;21376;50.954;4.716;2023-05-13T13:08:28;32.30;52.80
35240;DHT22;21376;50.954;4.716;2023-05-13T13:10:53;31.60;52.60
35240;DHT22;21376;50.954;4.716;2023-05-13T13:13:20;30.50;52.10
35240;DHT22;21376;50.954;4.716;2023-05-13T13:15:47;30.20;56.60
35240;DHT22;21376;50.954;4.716;2023-05-13T13:18:13;30.90;51.40
35240;DHT22;21376;50.954;4.716;2023-05-13T13:20:39;30.70;51.60
35240;DHT22;21376;50.954;4.716;2023-05-13T13:23:08;31.20;52.10
35240;DHT22;21376;50.954;4.716;2023-05-13T13:25:35;31.40;52.80
35240;DHT22;21376;50.954;4.716;2023-05-13T13:28:01;31.30;55.30
35240;DHT22;21376;50.954;4.716;2023-05-13T13:30:28;30.40;53.30
35240;DHT22;21376;50.954;4.716;2023-05-13T13:32:54;29.40;54.30
35240;DHT22;21376;50.954;4.716;2023-05-13T13:35:21;28.60;56.60
35240;DHT22;21376;50.954;4.716;2023-05-13T13:37:53;28.20;55.50
35240;DHT22;21376;50.954;4.716;2023-05-13T13:40:25;27.70;56.20
35240;DHT22;21376;50.954;4.716;2023-05-13T13:42:51;27.60;58.90
35240;DHT22;21376;50.954;4.716;2023-05-13T13:45:18;27.20;59.00
35240;DHT22;21376;50.954;4.716;2023-05-13T13:47:51;27.10;58.90
35240;DHT22;21376;50.954;4.716;2023-05-13T13:50:20;26.50;57.80
35240;DHT22;21376;50.954;4.716;2023-05-13T13:55:25;26.00;59.40
35240;DHT22;21376;50.954;4.716;2023-05-13T13:57:51;26.00;59.50
35240;DHT22;21376;50.954;4.716;2023-05-13T14:00:18;26.10;62.00
35240;DHT22;21376;50.954;4.716;2023-05-13T14:02:44;26.30;59.30
35240;DHT22;21376;50.954;4.716;2023-05-13T14:05:10;26.60;57.60
35240;DHT22;21376;50.954;4.716;2023-05-13T14:07:36;26.10;61.00
35240;DHT22;21376;50.954;4.716;2023-05-13T14:10:03;25.80;59.60
35240;DHT22;21376;50.954;4.716;2023-05-13T14:12:31;25.90;64.60
35240;DHT22;21376;50.954;4.716;2023-05-13T14:14:57;26.20;58.60
35240;DHT22;21376;50.954;4.716;2023-05-13T14:17:27;26.10;59.30
35240;DHT22;21376;50.954;4.716;2023-05-13T14:22:22;26.00;59.80
35240;DHT22;21376;50.954;4.716;2023-05-13T14:27:27;26.00;58.30
35240;DHT22;21376;50.954;4.716;2023-05-13T14:29:57;26.10;60.00
35240;DHT22;21376;50.954;4.716;2023-05-13T14:32:34;26.10;58.70
35240;DHT22;21376;50.954;4.716;2023-05-13T14:37:31;25.70;61.90
35240;DHT22;21376;50.954;4.716;2023-05-13T14:40:00;25.40;61.80
35240;DHT22;21376;50.954;4.716;2023-05-13T14:42:29;25.20;60.90
35240;DHT22;21376;50.954;4.716;2023-05-13T14:45:10;25.20;60.80
35240;DHT22;21376;50.954;4.716;2023-05-13T14:47:36;25.10;61.10
35240;DHT22;21376;50.954;4.716;2023-05-13T14:50:03;25.10;61.10
35240;DHT22;21376;50.954;4.716;2023-05-13T14:52:29;25.10;61.60
35240;DHT22;21376;50.954;4.716;2023-05-13T14:55:05;25.20;64.20
35240;DHT22;21376;50.954;4.716;2023-05-13T14:57:34;24.80;65.70
35240;DHT22;21376;50.954;4.716;2023-05-13T15:00:05;24.50;66.60
35240;DHT22;21376;50.954;4.716;2023-05-13T15:02:34;24.50;66.40
35240;DHT22;21376;50.954;4.716;2023-05-13T15:07:33;24.50;64.40
35240;DHT22;21376;50.954;4.716;2023-05-13T15:09:59;24.60;66.10
35240;DHT22;21376;50.954;4.716;2023-05-13T15:12:26;24.80;67.50
35240;DHT22;21376;50.954;4.716;2023-05-13T15:17:23;24.60;64.50
35240;DHT22;21376;50.954;4.716;2023-05-13T15:22:18;24.80;65.80
35240;DHT22;21376;50.954;4.716;2023-05-13T15:24:48;24.70;67.10
35240;DHT22;21376;50.954;4.716;2023-05-13T15:27:15;24.70;66.50
35240;DHT22;21376;50.954;4.716;2023-05-13T15:32:13;24.20;63.20
35240;DHT22;21376;50.954;4.716;2023-05-13T15:34:44;23.90;63.50
35240;DHT22;21376;50.954;4.716;2023-05-13T15:37:14;23.90;63.40
35240;DHT22;21376;50.954;4.716;2023-05-13T15:39:43;23.80;63.60
35240;DHT22;21376;50.954;4.716;2023-05-13T15:42:12;23.80;66.10
35240;DHT22;21376;50.954;4.716;2023-05-13T15:44:41;23.70;64.30
35240;DHT22;21376;50.954;4.716;2023-05-13T15:49:35;23.60;65.90
35240;DHT22;21376;50.954;4.716;2023-05-13T15:54:30;23.80;71.50
35240;DHT22;21376;50.954;4.716;2023-05-13T15:56:56;23.70;74.40
35240;DHT22;21376;50.954;4.716;2023-05-13T15:59:29;23.80;75.50
35240;DHT22;21376;50.954;4.716;2023-05-13T16:01:55;23.80;75.80
35240;DHT22;21376;50.954;4.716;2023-05-13T16:06:54;23.90;72.90
35240;DHT22;21376;50.954;4.716;2023-05-13T16:11:52;23.60;74.90
35240;DHT22;21376;50.954;4.716;2023-05-13T16:16:55;23.80;75.90
35240;DHT22;21376;50.954;4.716;2023-05-13T16:19:24;23.90;74.50
35240;DHT22;21376;50.954;4.716;2023-05-13T16:21:56;23.90;76.70
35240;DHT22;21376;50.954;4.716;2023-05-13T16:24:24;23.90;75.10
35240;DHT22;21376;50.954;4.716;2023-05-13T16:26:53;24.00;74.90
35240;DHT22;21376;50.954;4.716;2023-05-13T16:29:23;24.00;74.70
35240;DHT22;21376;50.954;4.716;2023-05-13T16:31:51;24.30;73.50
35240;DHT22;21376;50.954;4.716;2023-05-13T16:34:26;24.30;72.60
35240;DHT22;21376;50.954;4.716;2023-05-13T16:36:54;24.70;72.50
35240;DHT22;21376;50.954;4.716;2023-05-13T16:39:19;24.70;73.30
35240;DHT22;21376;50.954;4.716;2023-05-13T16:41:49;25.00;73.90
35240;DHT22;21376;50.954;4.716;2023-05-13T16:44:15;25.10;75.20
35240;DHT22;21376;50.954;4.716;2023-05-13T16:46:42;25.50;73.10
35240;DHT22;21376;50.954;4.716;2023-05-13T16:49:10;25.50;67.80
35240;DHT22;21376;50.954;4.716;2023-05-13T16:51:35;25.20;67.60
35240;DHT22;21376;50.954;4.716;2023-05-13T16:54:01;24.80;66.60
35240;DHT22;21376;50.954;4.716;2023-05-13T16:56:33;24.30;69.50
35240;DHT22;21376;50.954;4.716;2023-05-13T16:59:02;23.70;71.90
35240;DHT22;21376;50.954;4.716;2023-05-13T17:01:31;22.90;74.40
35240;DHT22;21376;50.954;4.716;2023-05-13T17:03:59;21.80;78.40
35240;DHT22;21376;50.954;4.716;2023-05-13T17:06:25;21.60;80.30
35240;DHT22;21376;50.954;4.716;2023-05-13T17:08:52;21.50;80.20
35240;DHT22;21376;50.954;4.716;2023-05-13T17:11:22;21.90;79.20
35240;DHT22;21376;50.954;4.716;2023-05-13T17:13:48;22.20;79.40
35240;DHT22;21376;50.954;4.716;2023-05-13T17:16:20;22.10;78.90
35240;DHT22;21376;50.954;4.716;2023-05-13T17:18:46;21.90;79.50
35240;DHT22;21376;50.954;4.716;2023-05-13T17:23:42;21.50;82.90
35240;DHT22;21376;50.954;4.716;2023-05-13T17:26:09;21.50;80.40
35240;DHT22;21376;50.954;4.716;2023-05-13T17:28:40;21.20;81.40
35240;DHT22;21376;50.954;4.716;2023-05-13T17:31:12;21.20;81.10
35240;DHT22;21376;50.954;4.716;2023-05-13T17:36:07;20.50;83.30
35240;DHT22;21376;50.954;4.716;2023-05-13T17:38:35;20.30;84.50
35240;DHT22;21376;50.954;4.716;2023-05-13T17:41:03;20.30;86.60
35240;DHT22;21376;50.954;4.716;2023-05-13T17:43:38;20.50;85.90
35240;DHT22;21376;50.954;4.716;2023-05-13T17:48:52;20.80;86.90
35240;DHT22;21376;50.954;4.716;2023-05-13T17:51:18;21.00;87.80
35240;DHT22;21376;50.954;4.716;2023-05-13T17:53:44;20.80;84.60
35240;DHT22;21376;50.954;4.716;2023-05-13T17:56:13;20.80;85.80
35240;DHT22;21376;50.954;4.716;2023-05-13T17:58:44;21.00;89.40
35240;DHT22;21376;50.954;4.716;2023-05-13T18:01:10;20.90;89.00
35240;DHT22;21376;50.954;4.716;2023-05-13T18:03:36;21.00;90.30
35240;DHT22;21376;50.954;4.716;2023-05-13T18:06:05;21.00;90.60
35240;DHT22;21376;50.954;4.716;2023-05-13T18:08:31;20.80;90.60
35240;DHT22;21376;50.954;4.716;2023-05-13T18:11:03;20.70;90.70
35240;DHT22;21376;50.954;4.716;2023-05-13T18:13:44;20.60;91.70
35240;DHT22;21376;50.954;4.716;2023-05-13T18:16:13;20.40;92.10
35240;DHT22;21376;50.954;4.716;2023-05-13T18:18:39;20.30;92.10
35240;DHT22;21376;50.954;4.716;2023-05-13T18:21:04;20.30;92.50
35240;DHT22;21376;50.954;4.716;2023-05-13T18:23:33;20.30;92.60
35240;DHT22;21376;50.954;4.716;2023-05-13T18:28:33;20.30;93.80
35240;DHT22;21376;50.954;4.716;2023-05-13T18:35:57;20.00;96.30
35240;DHT22;21376;50.954;4.716;2023-05-13T18:38:26;19.90;97.00
35240;DHT22;21376;50.954;4.716;2023-05-13T18:46:10;19.80;97.70
35240;DHT22;21376;50.954;4.716;2023-05-13T18:48:39;19.80;98.50
35240;DHT22;21376;50.954;4.716;2023-05-13T18:51:05;19.90;98.50
35240;DHT22;21376;50.954;4.716;2023-05-13T18:53:34;20.00;98.60
35240;DHT22;21376;50.954;4.716;2023-05-13T18:56:04;20.10;99.10
35240;DHT22;21376;50.954;4.716;2023-05-13T18:58:33;20.10;99.50
35240;DHT22;21376;50.954;4.716;2023-05-13T19:12:05;19.80;97.50
35240;DHT22;21376;50.954;4.716;2023-05-13T19:14:35;19.60;97.60
35240;DHT22;21376;50.954;4.716;2023-05-13T19:19:32;19.40;98.30
35240;DHT22;21376;50.954;4.716;2023-05-13T19:22:12;19.30;99.60
35240;DHT22;21376;50.954;4.716;2023-05-13T19:30:03;18.20;99.90
35240;DHT22;21376;50.954;4.716;2023-05-13T19:32:32;18.20;99.90
35240;DHT22;21376;50.954;4.716;2023-05-13T19:35:01;18.00;99.90